sensor_id;sensor_type;location;lat;lon;timestamp;pressure;altitude;pressure_sealevel;temperature;humidity
65832;BME280;52593;42.648;23.332;2023-05-27T00:01:19;94647.44;;;12.91;100.00
65832;BME280;52593;42.648;23.332;2023-05-27T00:03:46;94645.22;;;12.73;100.00
65832;BME280;52593;42.648;23.332;2023-05-27T00:06:12;94648.09;;;12.72;100.00
65832;BME280;52593;42.648;23.332;2023-05-27T00:08:37;94654.06;;;12.67;100.00
65832;BME280;52593;42.648;23.332;2023-05-27T00:11:02;94655.06;;;12.66;100.00
65832;BME280;52593;42.648;23.332;2023-05-27T00:13:28;94651.63;;;12.72;100.00
65832;BME280;52593;42.648;23.332;2023-05-27T00:15:53;94657.47;;;12.82;100.00
65832;BME280;52593;42.648;23.332;2023-05-27T00:18:19;94653.72;;;12.77;100.00
65832;BME280;52593;42.648;23.332;2023-05-27T00:20:44;94659.53;;;12.80;100.00
65832;BME280;52593;42.648;23.332;2023-05-27T00:23:10;94656.19;;;12.78;100.00
65832;BME280;52593;42.648;23.332;2023-05-27T00:25:35;94654.75;;;12.76;100.00
65832;BME280;52593;42.648;23.332;2023-05-27T00:28:01;94647.03;;;12.66;100.00
65832;BME280;52593;42.648;23.332;2023-05-27T00:30:26;94635.84;;;12.62;100.00
65832;BME280;52593;42.648;23.332;2023-05-27T00:32:52;94636.66;;;12.63;100.00
65832;BME280;52593;42.648;23.332;2023-05-27T00:35:17;94631.50;;;12.61;100.00
65832;BME280;52593;42.648;23.332;2023-05-27T00:37:43;94638.00;;;12.74;100.00
65832;BME280;52593;42.648;23.332;2023-05-27T00:40:10;94634.28;;;12.75;100.00
65832;BME280;52593;42.648;23.332;2023-05-27T00:42:37;94624.00;;;12.78;100.00
65832;BME280;52593;42.648;23.332;2023-05-27T00:45:03;94616.78;;;12.79;100.00
65832;BME280;52593;42.648;23.332;2023-05-27T00:47:30;94610.16;;;12.81;100.00
65832;BME280;52593;42.648;23.332;2023-05-27T00:49:57;94604.88;;;12.88;100.00
65832;BME280;52593;42.648;23.332;2023-05-27T00:52:24;94606.75;;;12.94;100.00
65832;BME280;52593;42.648;23.332;2023-05-27T00:54:51;94603.88;;;12.96;100.00
65832;BME280;52593;42.648;23.332;2023-05-27T00:57:17;94596.44;;;12.98;100.00
65832;BME280;52593;42.648;23.332;2023-05-27T00:59:42;94591.66;;;12.93;100.00
65832;BME280;52593;42.648;23.332;2023-05-27T01:02:07;94589.78;;;12.94;100.00
65832;BME280;52593;42.648;23.332;2023-05-27T01:04:33;94585.47;;;12.93;100.00
65832;BME280;52593;42.648;23.332;2023-05-27T01:07:06;94582.97;;;12.91;100.00
65832;BME280;52593;42.648;23.332;2023-05-27T01:15:20;94564.63;;;13.01;100.00
65832;BME280;52593;42.648;23.332;2023-05-27T01:17:47;94564.63;;;13.01;100.00
65832;BME280;52593;42.648;23.332;2023-05-27T01:20:14;94558.03;;;13.04;100.00
65832;BME280;52593;42.648;23.332;2023-05-27T01:22:41;94557.81;;;12.99;100.00
65832;BME280;52593;42.648;23.332;2023-05-27T01:25:08;94554.69;;;12.95;100.00
65832;BME280;52593;42.648;23.332;2023-05-27T01:27:34;94547.88;;;12.93;100.00
65832;BME280;52593;42.648;23.332;2023-05-27T01:29:59;94550.31;;;12.88;100.00
65832;BME280;52593;42.648;23.332;2023-05-27T01:38:05;94535.63;;;12.83;100.00
65832;BME280;52593;42.648;23.332;2023-05-27T01:40:33;94539.72;;;12.79;100.00
65832;BME280;52593;42.648;23.332;2023-05-27T01:42:59;94530.22;;;12.77;100.00
65832;BME280;52593;42.648;23.332;2023-05-27T01:45:25;94528.56;;;12.76;100.00
65832;BME280;52593;42.648;23.332;2023-05-27T01:47:51;94526.88;;;12.68;100.00
65832;BME280;52593;42.648;23.332;2023-05-27T01:50:16;94535.72;;;12.62;100.00
65832;BME280;52593;42.648;23.332;2023-05-27T01:52:42;94538.34;;;12.55;100.00
65832;BME280;52593;42.648;23.332;2023-05-27T01:55:07;94536.63;;;12.47;100.00
65832;BME280;52593;42.648;23.332;2023-05-27T01:57:33;94537.03;;;12.44;100.00
65832;BME280;52593;42.648;23.332;2023-05-27T01:59:58;94545.66;;;12.40;100.00
65832;BME280;52593;42.648;23.332;2023-05-27T02:02:24;94544.56;;;12.34;100.00
65832;BME280;52593;42.648;23.332;2023-05-27T02:04:50;94536.72;;;12.32;100.00
65832;BME280;52593;42.648;23.332;2023-05-27T02:07:15;94545.53;;;12.26;100.00
65832;BME280;52593;42.648;23.332;2023-05-27T02:09:42;94542.63;;;12.21;100.00
65832;BME280;52593;42.648;23.332;2023-05-27T02:12:08;94550.25;;;12.18;100.00
65832;BME280;52593;42.648;23.332;2023-05-27T02:14:34;94541.91;;;12.12;100.00
65832;BME280;52593;42.648;23.332;2023-05-27T02:17:03;94541.28;;;12.10;100.00
65832;BME280;52593;42.648;23.332;2023-05-27T02:19:29;94542.50;;;12.08;100.00
65832;BME280;52593;42.648;23.332;2023-05-27T02:21:54;94539.44;;;12.11;100.00
65832;BME280;52593;42.648;23.332;2023-05-27T02:24:20;94538.63;;;12.10;100.00
65832;BME280;52593;42.648;23.332;2023-05-27T02:26:45;94542.50;;;12.08;100.00
65832;BME280;52593;42.648;23.332;2023-05-27T02:29:11;94537.13;;;12.08;100.00
65832;BME280;52593;42.648;23.332;2023-05-27T02:31:36;94538.00;;;12.08;100.00
65832;BME280;52593;42.648;23.332;2023-05-27T02:34:01;94542.88;;;12.05;100.00
65832;BME280;52593;42.648;23.332;2023-05-27T02:36:27;94542.56;;;12.15;100.00
65832;BME280;52593;42.648;23.332;2023-05-27T02:38:52;94547.78;;;12.23;100.00
65832;BME280;52593;42.648;23.332;2023-05-27T02:41:18;94550.72;;;12.28;100.00
65832;BME280;52593;42.648;23.332;2023-05-27T02:43:43;94549.28;;;12.25;100.00
65832;BME280;52593;42.648;23.332;2023-05-27T02:46:09;94546.00;;;12.30;100.00
65832;BME280;52593;42.648;23.332;2023-05-27T02:48:34;94544.34;;;12.29;100.00
65832;BME280;52593;42.648;23.332;2023-05-27T02:51:00;94546.81;;;12.30;100.00
65832;BME280;52593;42.648;23.332;2023-05-27T02:53:25;94553.72;;;12.40;100.00
65832;BME280;52593;42.648;23.332;2023-05-27T02:55:51;94550.13;;;12.32;100.00
65832;BME280;52593;42.648;23.332;2023-05-27T02:58:17;94552.16;;;12.24;100.00
65832;BME280;52593;42.648;23.332;2023-05-27T03:00:42;94546.38;;;12.27;100.00
65832;BME280;52593;42.648;23.332;2023-05-27T03:03:08;94539.78;;;12.29;100.00
65832;BME280;52593;42.648;23.332;2023-05-27T03:05:34;94537.97;;;12.30;100.00
65832;BME280;52593;42.648;23.332;2023-05-27T03:08:00;94538.78;;;12.30;100.00
65832;BME280;52593;42.648;23.332;2023-05-27T03:10:25;94535.28;;;12.30;100.00
65832;BME280;52593;42.648;23.332;2023-05-27T03:12:53;94538.16;;;12.28;100.00
65832;BME280;52593;42.648;23.332;2023-05-27T03:15:18;94543.06;;;12.25;100.00
65832;BME280;52593;42.648;23.332;2023-05-27T03:17:44;94541.53;;;12.16;100.00
65832;BME280;52593;42.648;23.332;2023-05-27T03:20:10;94550.88;;;12.20;100.00
65832;BME280;52593;42.648;23.332;2023-05-27T03:22:36;94537.25;;;12.21;100.00
65832;BME280;52593;42.648;23.332;2023-05-27T03:25:02;94543.44;;;12.22;100.00
65832;BME280;52593;42.648;23.332;2023-05-27T03:27:27;94546.31;;;12.20;100.00
65832;BME280;52593;42.648;23.332;2023-05-27T03:29:53;94549.47;;;12.24;100.00
65832;BME280;52593;42.648;23.332;2023-05-27T03:32:18;94548.91;;;12.35;100.00
65832;BME280;52593;42.648;23.332;2023-05-27T03:34:43;94548.69;;;12.30;100.00
65832;BME280;52593;42.648;23.332;2023-05-27T03:37:09;94549.31;;;12.32;100.00
65832;BME280;52593;42.648;23.332;2023-05-27T03:39:35;94554.28;;;12.35;100.00
65832;BME280;52593;42.648;23.332;2023-05-27T03:42:00;94563.53;;;12.32;100.00
65832;BME280;52593;42.648;23.332;2023-05-27T03:44:25;94567.06;;;12.33;100.00
65832;BME280;52593;42.648;23.332;2023-05-27T03:46:51;94564.41;;;12.33;100.00
65832;BME280;52593;42.648;23.332;2023-05-27T03:49:16;94574.53;;;12.38;100.00
65832;BME280;52593;42.648;23.332;2023-05-27T03:51:42;94564.25;;;12.41;100.00
65832;BME280;52593;42.648;23.332;2023-05-27T03:54:07;94563.66;;;12.46;100.00
65832;BME280;52593;42.648;23.332;2023-05-27T03:56:32;94559.31;;;12.45;100.00
65832;BME280;52593;42.648;23.332;2023-05-27T03:58:58;94568.63;;;12.49;100.00
65832;BME280;52593;42.648;23.332;2023-05-27T04:01:23;94564.97;;;12.57;100.00
65832;BME280;52593;42.648;23.332;2023-05-27T04:03:49;94563.78;;;12.59;100.00
65832;BME280;52593;42.648;23.332;2023-05-27T04:06:15;94566.06;;;12.62;100.00
65832;BME280;52593;42.648;23.332;2023-05-27T04:08:41;94558.25;;;12.67;100.00
65832;BME280;52593;42.648;23.332;2023-05-27T04:11:11;94569.44;;;12.71;100.00
65832;BME280;52593;42.648;23.332;2023-05-27T04:13:37;94570.47;;;12.77;100.00
65832;BME280;52593;42.648;23.332;2023-05-27T04:16:03;94572.38;;;12.83;100.00
65832;BME280;52593;42.648;23.332;2023-05-27T04:18:28;94566.00;;;12.84;100.00
65832;BME280;52593;42.648;23.332;2023-05-27T04:20:54;94560.66;;;12.91;100.00
65832;BME280;52593;42.648;23.332;2023-05-27T04:23:20;94560.44;;;12.92;100.00
65832;BME280;52593;42.648;23.332;2023-05-27T04:25:45;94568.50;;;12.92;100.00
65832;BME280;52593;42.648;23.332;2023-05-27T04:28:11;94560.13;;;13.02;100.00
65832;BME280;52593;42.648;23.332;2023-05-27T04:30:36;94564.88;;;13.07;100.00
65832;BME280;52593;42.648;23.332;2023-05-27T04:33:05;94563.50;;;13.17;99.89
65832;BME280;52593;42.648;23.332;2023-05-27T04:35:32;94564.78;;;13.28;99.53
65832;BME280;52593;42.648;23.332;2023-05-27T04:37:59;94570.97;;;13.29;98.74
65832;BME280;52593;42.648;23.332;2023-05-27T04:40:26;94572.50;;;13.38;98.57
65832;BME280;52593;42.648;23.332;2023-05-27T04:42:52;94568.09;;;13.30;98.18
65832;BME280;52593;42.648;23.332;2023-05-27T04:45:17;94568.19;;;13.50;98.82
65832;BME280;52593;42.648;23.332;2023-05-27T04:47:43;94564.09;;;13.54;97.22
65832;BME280;52593;42.648;23.332;2023-05-27T04:50:09;94567.66;;;13.75;95.88
65832;BME280;52593;42.648;23.332;2023-05-27T04:52:38;94566.19;;;13.66;97.82
65832;BME280;52593;42.648;23.332;2023-05-27T04:55:04;94569.94;;;13.65;97.65
65832;BME280;52593;42.648;23.332;2023-05-27T04:57:30;94571.56;;;13.66;97.07
65832;BME280;52593;42.648;23.332;2023-05-27T04:59:56;94571.81;;;13.71;97.50
65832;BME280;52593;42.648;23.332;2023-05-27T05:02:38;94570.53;;;13.60;99.93
65832;BME280;52593;42.648;23.332;2023-05-27T05:05:06;94568.88;;;13.59;100.00
65832;BME280;52593;42.648;23.332;2023-05-27T05:07:34;94573.03;;;13.68;99.45
65832;BME280;52593;42.648;23.332;2023-05-27T05:10:04;94571.19;;;13.82;98.68
65832;BME280;52593;42.648;23.332;2023-05-27T05:12:30;94577.03;;;13.86;98.14
65832;BME280;52593;42.648;23.332;2023-05-27T05:14:56;94578.25;;;13.83;97.02
65832;BME280;52593;42.648;23.332;2023-05-27T05:17:21;94582.19;;;13.87;96.66
65832;BME280;52593;42.648;23.332;2023-05-27T05:19:49;94580.13;;;13.83;97.30
65832;BME280;52593;42.648;23.332;2023-05-27T05:22:15;94585.31;;;13.91;96.47
65832;BME280;52593;42.648;23.332;2023-05-27T05:24:44;94584.50;;;13.97;96.36
65832;BME280;52593;42.648;23.332;2023-05-27T05:27:09;94591.56;;;14.18;94.90
65832;BME280;52593;42.648;23.332;2023-05-27T05:29:35;94586.38;;;14.10;93.84
65832;BME280;52593;42.648;23.332;2023-05-27T05:32:02;94595.06;;;14.12;93.86
65832;BME280;52593;42.648;23.332;2023-05-27T05:34:27;94587.19;;;13.97;94.96
65832;BME280;52593;42.648;23.332;2023-05-27T05:36:52;94589.22;;;13.88;95.94
65832;BME280;52593;42.648;23.332;2023-05-27T05:39:18;94598.16;;;13.96;95.36
65832;BME280;52593;42.648;23.332;2023-05-27T05:41:45;94589.88;;;14.04;95.94
65832;BME280;52593;42.648;23.332;2023-05-27T05:44:11;94588.66;;;14.13;96.27
65832;BME280;52593;42.648;23.332;2023-05-27T05:46:36;94590.13;;;14.29;95.85
65832;BME280;52593;42.648;23.332;2023-05-27T05:49:02;94590.97;;;14.43;94.32
65832;BME280;52593;42.648;23.332;2023-05-27T05:51:27;94594.50;;;14.50;91.78
65832;BME280;52593;42.648;23.332;2023-05-27T05:53:52;94592.63;;;14.37;91.15
65832;BME280;52593;42.648;23.332;2023-05-27T05:56:18;94597.59;;;14.34;92.10
65832;BME280;52593;42.648;23.332;2023-05-27T05:58:43;94596.53;;;14.28;92.82
65832;BME280;52593;42.648;23.332;2023-05-27T06:01:09;94601.31;;;14.26;92.75
65832;BME280;52593;42.648;23.332;2023-05-27T06:03:35;94606.06;;;14.37;92.35
65832;BME280;52593;42.648;23.332;2023-05-27T06:06:01;94601.53;;;14.51;91.83
65832;BME280;52593;42.648;23.332;2023-05-27T06:08:27;94607.53;;;14.60;93.06
65832;BME280;52593;42.648;23.332;2023-05-27T06:10:52;94611.72;;;14.62;92.18
65832;BME280;52593;42.648;23.332;2023-05-27T06:13:17;94617.50;;;14.73;93.21
65832;BME280;52593;42.648;23.332;2023-05-27T06:15:43;94608.59;;;14.86;92.15
65832;BME280;52593;42.648;23.332;2023-05-27T06:18:08;94614.81;;;15.00;90.36
65832;BME280;52593;42.648;23.332;2023-05-27T06:20:34;94613.56;;;14.95;88.41
65832;BME280;52593;42.648;23.332;2023-05-27T06:22:59;94612.31;;;14.98;89.18
65832;BME280;52593;42.648;23.332;2023-05-27T06:25:25;94614.38;;;15.03;88.36
65832;BME280;52593;42.648;23.332;2023-05-27T06:27:50;94616.88;;;14.97;89.29
65832;BME280;52593;42.648;23.332;2023-05-27T06:30:15;94620.19;;;15.06;88.90
65832;BME280;52593;42.648;23.332;2023-05-27T06:32:41;94621.19;;;15.05;89.55
65832;BME280;52593;42.648;23.332;2023-05-27T06:35:07;94619.75;;;14.96;89.31
65832;BME280;52593;42.648;23.332;2023-05-27T06:37:32;94628.50;;;14.98;90.97
65832;BME280;52593;42.648;23.332;2023-05-27T06:39:57;94627.22;;;15.14;89.56
65832;BME280;52593;42.648;23.332;2023-05-27T06:42:23;94622.84;;;15.13;88.81
65832;BME280;52593;42.648;23.332;2023-05-27T06:44:48;94630.13;;;15.12;87.95
65832;BME280;52593;42.648;23.332;2023-05-27T06:47:14;94628.88;;;15.15;87.52
65832;BME280;52593;42.648;23.332;2023-05-27T06:49:39;94633.22;;;15.09;87.73
65832;BME280;52593;42.648;23.332;2023-05-27T06:52:05;94630.13;;;15.19;88.68
65832;BME280;52593;42.648;23.332;2023-05-27T06:54:31;94635.03;;;15.36;87.34
65832;BME280;52593;42.648;23.332;2023-05-27T06:56:57;94638.41;;;15.24;88.35
65832;BME280;52593;42.648;23.332;2023-05-27T06:59:22;94640.44;;;15.42;88.13
65832;BME280;52593;42.648;23.332;2023-05-27T07:01:48;94635.63;;;15.58;87.76
65832;BME280;52593;42.648;23.332;2023-05-27T07:04:13;94644.56;;;15.45;85.77
65832;BME280;52593;42.648;23.332;2023-05-27T07:06:39;94636.06;;;15.41;86.93
65832;BME280;52593;42.648;23.332;2023-05-27T07:09:04;94632.13;;;15.44;86.55
65832;BME280;52593;42.648;23.332;2023-05-27T07:11:31;94634.16;;;15.55;86.32
65832;BME280;52593;42.648;23.332;2023-05-27T07:13:56;94630.03;;;15.52;85.66
65832;BME280;52593;42.648;23.332;2023-05-27T07:16:22;94636.88;;;15.55;85.64
65832;BME280;52593;42.648;23.332;2023-05-27T07:18:47;94636.47;;;15.51;86.09
65832;BME280;52593;42.648;23.332;2023-05-27T07:21:12;94639.59;;;15.48;86.76
65832;BME280;52593;42.648;23.332;2023-05-27T07:23:38;94637.94;;;15.47;86.28
65832;BME280;52593;42.648;23.332;2023-05-27T07:26:03;94639.16;;;15.51;85.41
65832;BME280;52593;42.648;23.332;2023-05-27T07:28:28;94647.03;;;15.53;86.70
65832;BME280;52593;42.648;23.332;2023-05-27T07:30:54;94640.59;;;15.61;86.68
65832;BME280;52593;42.648;23.332;2023-05-27T07:33:19;94642.00;;;15.63;87.65
65832;BME280;52593;42.648;23.332;2023-05-27T07:35:45;94638.28;;;15.64;87.86
65832;BME280;52593;42.648;23.332;2023-05-27T07:38:10;94635.75;;;15.76;87.93
65832;BME280;52593;42.648;23.332;2023-05-27T07:40:36;94640.72;;;15.93;86.80
65832;BME280;52593;42.648;23.332;2023-05-27T07:43:01;94637.38;;;15.97;86.44
65832;BME280;52593;42.648;23.332;2023-05-27T07:45:27;94635.56;;;16.23;86.42
65832;BME280;52593;42.648;23.332;2023-05-27T07:47:52;94637.00;;;16.26;82.37
65832;BME280;52593;42.648;23.332;2023-05-27T07:50:17;94644.09;;;16.52;82.02
65832;BME280;52593;42.648;23.332;2023-05-27T07:52:43;94644.09;;;16.58;81.87
65832;BME280;52593;42.648;23.332;2023-05-27T07:55:08;94637.38;;;16.61;81.14
65832;BME280;52593;42.648;23.332;2023-05-27T07:57:34;94645.69;;;16.66;80.35
65832;BME280;52593;42.648;23.332;2023-05-27T07:59:59;94643.06;;;16.53;79.46
65832;BME280;52593;42.648;23.332;2023-05-27T08:02:25;94650.31;;;16.59;79.96
65832;BME280;52593;42.648;23.332;2023-05-27T08:04:51;94653.56;;;16.68;78.75
65832;BME280;52593;42.648;23.332;2023-05-27T08:07:17;94655.63;;;16.72;78.22
65832;BME280;52593;42.648;23.332;2023-05-27T08:09:42;94648.97;;;17.00;75.79
65832;BME280;52593;42.648;23.332;2023-05-27T08:12:08;94652.22;;;17.09;74.01
65832;BME280;52593;42.648;23.332;2023-05-27T08:14:38;94652.44;;;17.07;75.10
65832;BME280;52593;42.648;23.332;2023-05-27T08:17:05;94650.91;;;16.93;75.33
65832;BME280;52593;42.648;23.332;2023-05-27T08:19:31;94655.09;;;16.89;75.45
65832;BME280;52593;42.648;23.332;2023-05-27T08:21:56;94656.53;;;16.91;72.85
65832;BME280;52593;42.648;23.332;2023-05-27T08:24:22;94640.91;;;16.93;73.96
65832;BME280;52593;42.648;23.332;2023-05-27T08:26:48;94652.06;;;17.04;72.81
65832;BME280;52593;42.648;23.332;2023-05-27T08:29:13;94647.91;;;17.26;71.96
65832;BME280;52593;42.648;23.332;2023-05-27T08:31:39;94651.75;;;17.37;71.56
65832;BME280;52593;42.648;23.332;2023-05-27T08:34:05;94651.66;;;17.25;71.71
65832;BME280;52593;42.648;23.332;2023-05-27T08:36:30;94651.94;;;17.17;71.86
65832;BME280;52593;42.648;23.332;2023-05-27T08:38:57;94662.16;;;17.15;72.04
65832;BME280;52593;42.648;23.332;2023-05-27T08:41:23;94658.03;;;17.13;73.80
65832;BME280;52593;42.648;23.332;2023-05-27T08:43:49;94664.13;;;17.01;72.04
65832;BME280;52593;42.648;23.332;2023-05-27T08:46:15;94661.28;;;16.96;72.56
65832;BME280;52593;42.648;23.332;2023-05-27T08:48:41;94653.22;;;16.89;72.23
65832;BME280;52593;42.648;23.332;2023-05-27T08:51:07;94656.16;;;16.81;73.02
65832;BME280;52593;42.648;23.332;2023-05-27T08:53:34;94648.47;;;16.85;73.26
65832;BME280;52593;42.648;23.332;2023-05-27T08:56:01;94651.13;;;16.91;73.26
65832;BME280;52593;42.648;23.332;2023-05-27T08:58:28;94643.50;;;17.07;73.43
65832;BME280;52593;42.648;23.332;2023-05-27T09:00:54;94647.09;;;17.26;73.31
65832;BME280;52593;42.648;23.332;2023-05-27T09:03:20;94655.13;;;17.07;72.80
65832;BME280;52593;42.648;23.332;2023-05-27T09:05:45;94647.25;;;17.06;72.08
65832;BME280;52593;42.648;23.332;2023-05-27T09:08:11;94637.88;;;17.08;72.86
65832;BME280;52593;42.648;23.332;2023-05-27T09:10:55;94647.59;;;17.16;70.95
65832;BME280;52593;42.648;23.332;2023-05-27T09:13:28;94643.53;;;17.25;72.11
65832;BME280;52593;42.648;23.332;2023-05-27T09:16:01;94645.22;;;17.45;72.48
65832;BME280;52593;42.648;23.332;2023-05-27T09:18:29;94648.47;;;17.54;70.71
65832;BME280;52593;42.648;23.332;2023-05-27T09:20:56;94638.09;;;17.51;69.97
65832;BME280;52593;42.648;23.332;2023-05-27T09:23:21;94634.06;;;17.60;70.02
65832;BME280;52593;42.648;23.332;2023-05-27T09:25:47;94639.00;;;17.63;70.89
65832;BME280;52593;42.648;23.332;2023-05-27T09:28:23;94631.72;;;17.63;69.04
65832;BME280;52593;42.648;23.332;2023-05-27T09:30:59;94635.03;;;17.84;70.84
65832;BME280;52593;42.648;23.332;2023-05-27T09:33:26;94630.66;;;17.83;70.29
65832;BME280;52593;42.648;23.332;2023-05-27T09:35:52;94629.09;;;17.94;70.25
65832;BME280;52593;42.648;23.332;2023-05-27T09:38:17;94628.66;;;17.97;68.37
65832;BME280;52593;42.648;23.332;2023-05-27T09:40:46;94625.47;;;18.00;69.22
65832;BME280;52593;42.648;23.332;2023-05-27T09:43:15;94626.13;;;18.14;69.32
65832;BME280;52593;42.648;23.332;2023-05-27T09:45:43;94619.25;;;18.30;66.95
65832;BME280;52593;42.648;23.332;2023-05-27T09:48:10;94619.84;;;18.62;67.25
65832;BME280;52593;42.648;23.332;2023-05-27T09:50:37;94618.25;;;18.85;66.05
65832;BME280;52593;42.648;23.332;2023-05-27T09:53:03;94613.91;;;19.07;64.34
65832;BME280;52593;42.648;23.332;2023-05-27T09:55:30;94622.88;;;19.20;63.15
65832;BME280;52593;42.648;23.332;2023-05-27T09:57:55;94620.16;;;19.20;62.55
65832;BME280;52593;42.648;23.332;2023-05-27T10:00:21;94625.25;;;19.16;62.09
65832;BME280;52593;42.648;23.332;2023-05-27T10:02:49;94615.81;;;19.07;61.75
65832;BME280;52593;42.648;23.332;2023-05-27T10:05:16;94621.31;;;18.88;63.04
65832;BME280;52593;42.648;23.332;2023-05-27T10:07:45;94615.09;;;19.12;62.91
65832;BME280;52593;42.648;23.332;2023-05-27T10:10:12;94617.47;;;19.32;62.37
65832;BME280;52593;42.648;23.332;2023-05-27T10:12:42;94622.53;;;19.28;60.45
65832;BME280;52593;42.648;23.332;2023-05-27T10:15:09;94621.81;;;19.56;61.69
65832;BME280;52593;42.648;23.332;2023-05-27T10:17:47;94615.06;;;19.83;60.89
65832;BME280;52593;42.648;23.332;2023-05-27T10:20:27;94616.00;;;19.88;60.33
65832;BME280;52593;42.648;23.332;2023-05-27T10:22:53;94610.47;;;20.12;58.78
65832;BME280;52593;42.648;23.332;2023-05-27T10:25:18;94610.00;;;20.15;58.95
65832;BME280;52593;42.648;23.332;2023-05-27T10:27:45;94599.03;;;20.39;58.54
65832;BME280;52593;42.648;23.332;2023-05-27T10:30:14;94606.66;;;20.54;58.77
65832;BME280;52593;42.648;23.332;2023-05-27T10:32:57;94598.81;;;20.40;59.48
65832;BME280;52593;42.648;23.332;2023-05-27T10:35:25;94601.22;;;20.54;59.16
65832;BME280;52593;42.648;23.332;2023-05-27T10:37:52;94597.19;;;20.56;57.53
65832;BME280;52593;42.648;23.332;2023-05-27T10:40:24;94594.09;;;20.36;59.47
65832;BME280;52593;42.648;23.332;2023-05-27T10:43:00;94590.84;;;20.51;59.50
65832;BME280;52593;42.648;23.332;2023-05-27T10:45:33;94591.63;;;20.34;58.43
65832;BME280;52593;42.648;23.332;2023-05-27T10:47:59;94597.28;;;20.61;58.81
65832;BME280;52593;42.648;23.332;2023-05-27T10:50:30;94587.28;;;20.50;58.10
65832;BME280;52593;42.648;23.332;2023-05-27T10:52:59;94587.09;;;20.40;58.34
65832;BME280;52593;42.648;23.332;2023-05-27T10:55:24;94590.31;;;20.08;59.42
65832;BME280;52593;42.648;23.332;2023-05-27T10:57:51;94582.06;;;20.03;58.83
65832;BME280;52593;42.648;23.332;2023-05-27T11:00:17;94582.13;;;19.91;58.70
65832;BME280;52593;42.648;23.332;2023-05-27T11:02:44;94583.91;;;19.85;59.13
65832;BME280;52593;42.648;23.332;2023-05-27T11:05:10;94580.66;;;20.00;58.37
65832;BME280;52593;42.648;23.332;2023-05-27T11:07:39;94582.59;;;19.88;58.39
65832;BME280;52593;42.648;23.332;2023-05-27T11:10:07;94574.69;;;19.86;59.62
65832;BME280;52593;42.648;23.332;2023-05-27T11:12:32;94573.34;;;20.01;60.33
65832;BME280;52593;42.648;23.332;2023-05-27T11:14:57;94571.88;;;20.10;60.63
65832;BME280;52593;42.648;23.332;2023-05-27T11:17:23;94569.44;;;20.25;59.22
65832;BME280;52593;42.648;23.332;2023-05-27T11:19:50;94567.06;;;20.29;59.10
65832;BME280;52593;42.648;23.332;2023-05-27T11:22:17;94557.44;;;20.67;58.15
65832;BME280;52593;42.648;23.332;2023-05-27T11:24:43;94561.41;;;21.10;57.37
65832;BME280;52593;42.648;23.332;2023-05-27T11:27:10;94564.34;;;21.26;56.82
65832;BME280;52593;42.648;23.332;2023-05-27T11:29:36;94566.03;;;21.49;55.50
65832;BME280;52593;42.648;23.332;2023-05-27T11:32:03;94553.06;;;21.56;56.51
65832;BME280;52593;42.648;23.332;2023-05-27T11:34:29;94558.34;;;21.46;57.31
65832;BME280;52593;42.648;23.332;2023-05-27T11:36:54;94557.56;;;21.11;57.51
65832;BME280;52593;42.648;23.332;2023-05-27T11:39:21;94544.44;;;20.86;58.10
65832;BME280;52593;42.648;23.332;2023-05-27T11:41:53;94545.06;;;21.10;59.07
65832;BME280;52593;42.648;23.332;2023-05-27T11:44:23;94538.00;;;21.70;57.43
65832;BME280;52593;42.648;23.332;2023-05-27T11:46:50;94533.53;;;22.31;55.57
65832;BME280;52593;42.648;23.332;2023-05-27T11:49:17;94519.63;;;21.83;54.84
65832;BME280;52593;42.648;23.332;2023-05-27T11:51:45;94529.97;;;21.42;56.74
65832;BME280;52593;42.648;23.332;2023-05-27T11:54:24;94528.50;;;21.95;54.88
65832;BME280;52593;42.648;23.332;2023-05-27T11:56:51;94523.50;;;22.36;53.78
65832;BME280;52593;42.648;23.332;2023-05-27T11:59:17;94524.06;;;22.71;53.25
65832;BME280;52593;42.648;23.332;2023-05-27T12:01:43;94522.09;;;22.61;53.17
65832;BME280;52593;42.648;23.332;2023-05-27T12:04:09;94511.91;;;22.84;50.67
65832;BME280;52593;42.648;23.332;2023-05-27T12:06:37;94512.75;;;23.22;50.12
65832;BME280;52593;42.648;23.332;2023-05-27T12:09:06;94506.16;;;23.71;51.07
65832;BME280;52593;42.648;23.332;2023-05-27T12:11:33;94501.31;;;23.30;48.79
65832;BME280;52593;42.648;23.332;2023-05-27T12:13:58;94502.09;;;23.78;49.85
65832;BME280;52593;42.648;23.332;2023-05-27T12:16:24;94496.09;;;23.81;47.81
65832;BME280;52593;42.648;23.332;2023-05-27T12:18:49;94487.66;;;23.93;48.38
65832;BME280;52593;42.648;23.332;2023-05-27T12:21:15;94493.22;;;24.24;48.91
65832;BME280;52593;42.648;23.332;2023-05-27T12:23:41;94486.31;;;23.96;47.76
65832;BME280;52593;42.648;23.332;2023-05-27T12:26:12;94489.13;;;24.21;47.63
65832;BME280;52593;42.648;23.332;2023-05-27T12:28:38;94484.97;;;24.09;46.60
65832;BME280;52593;42.648;23.332;2023-05-27T12:31:03;94481.97;;;24.05;47.20
65832;BME280;52593;42.648;23.332;2023-05-27T12:33:29;94481.41;;;23.93;44.61
65832;BME280;52593;42.648;23.332;2023-05-27T12:35:55;94475.75;;;24.35;45.47
65832;BME280;52593;42.648;23.332;2023-05-27T12:38:21;94479.34;;;24.72;44.69
65832;BME280;52593;42.648;23.332;2023-05-27T12:40:46;94467.56;;;24.92;45.79
65832;BME280;52593;42.648;23.332;2023-05-27T12:43:12;94466.47;;;24.78;47.23
65832;BME280;52593;42.648;23.332;2023-05-27T12:45:37;94466.72;;;25.02;47.03
65832;BME280;52593;42.648;23.332;2023-05-27T12:48:02;94458.72;;;25.31;44.96
65832;BME280;52593;42.648;23.332;2023-05-27T12:50:28;94452.47;;;25.10;44.86
65832;BME280;52593;42.648;23.332;2023-05-27T12:52:54;94451.31;;;25.47;44.55